createdAt,value
2022-11-22T00:00:01.998Z,16.23
2022-11-22T00:02:34.461Z,16.48
2022-11-22T00:05:04.494Z,16.75
2022-11-22T00:07:34.599Z,15.93
2022-11-22T00:10:04.608Z,15.15
2022-11-22T00:12:34.640Z,16.65
2022-11-22T00:15:04.638Z,15.85
2022-11-22T00:17:37.221Z,15.15
2022-11-22T00:20:10.629Z,16.90
2022-11-22T00:22:44.505Z,16.52
2022-11-22T00:25:16.009Z,17.10
2022-11-22T00:27:46.221Z,16.88
2022-11-22T00:30:16.308Z,17.13
2022-11-22T00:32:48.772Z,17.73
2022-11-22T00:35:18.759Z,17.05
2022-11-22T00:37:48.637Z,15.00
2022-11-22T00:40:19.253Z,16.13
2022-11-22T00:42:49.110Z,16.50
2022-11-22T00:45:19.129Z,15.48
2022-11-22T00:47:51.558Z,16.58
2022-11-22T00:50:21.680Z,15.75
2022-11-22T00:52:51.607Z,15.98
2022-11-22T00:55:21.457Z,16.48
2022-11-22T00:57:51.368Z,16.00
2022-11-22T01:00:22.014Z,14.38
2022-11-22T01:02:54.494Z,14.00
2022-11-22T01:05:24.401Z,14.95
2022-11-22T01:07:54.286Z,14.85
2022-11-22T01:10:24.199Z,15.52
2022-11-22T01:12:54.067Z,14.35
2022-11-22T01:15:24.151Z,14.88
2022-11-22T01:17:56.641Z,14.70
2022-11-22T01:20:26.625Z,13.43
2022-11-22T01:22:56.473Z,14.13
2022-11-22T01:25:26.357Z,14.82
2022-11-22T01:27:56.228Z,14.02
2022-11-22T01:30:26.171Z,13.95
2022-11-22T01:32:58.610Z,13.27
2022-11-22T01:35:28.503Z,14.73
2022-11-22T01:37:58.347Z,15.00
2022-11-22T01:40:28.240Z,15.57
2022-11-22T01:43:00.462Z,13.80
2022-11-22T01:45:51.434Z,14.32
2022-11-22T01:48:47.009Z,14.65
2022-11-22T01:51:25.663Z,14.82
2022-11-22T01:53:57.596Z,13.88
2022-11-22T01:56:29.415Z,13.45
2022-11-22T01:59:04.762Z,14.30
2022-11-22T02:01:35.348Z,13.70
2022-11-22T02:04:11.793Z,15.25
2022-11-22T02:06:49.874Z,14.50
2022-11-22T02:09:20.304Z,14.85
2022-11-22T02:11:53.831Z,14.35
2022-11-22T02:14:28.748Z,14.55
2022-11-22T02:16:58.684Z,13.70
2022-11-22T02:19:43.521Z,14.85
2022-11-22T02:22:31.336Z,14.25
2022-11-22T02:25:11.800Z,14.05
2022-11-22T02:27:44.493Z,15.48
2022-11-22T02:30:14.727Z,14.63
2022-11-22T02:32:44.818Z,14.88
2022-11-22T02:35:23.596Z,15.50
2022-11-22T02:37:59.956Z,14.13
2022-11-22T02:40:34.510Z,15.18
2022-11-22T02:43:12.779Z,15.50
2022-11-22T02:45:42.638Z,14.57
2022-11-22T02:48:14.819Z,14.77
2022-11-22T02:50:45.043Z,15.75
2022-11-22T02:53:16.401Z,15.60
2022-11-22T02:55:46.341Z,16.30
2022-11-22T02:58:18.816Z,14.77
2022-11-22T03:00:48.725Z,15.15
2022-11-22T03:03:18.859Z,14.13
2022-11-22T03:05:48.712Z,14.70
2022-11-22T03:08:18.600Z,16.08
2022-11-22T03:10:48.494Z,14.73
2022-11-22T03:13:21.122Z,14.90
2022-11-22T03:15:51.055Z,15.18
2022-11-22T03:18:20.907Z,15.85
2022-11-22T03:20:50.779Z,14.35
2022-11-22T03:23:20.897Z,16.38
2022-11-22T03:25:50.853Z,15.20
2022-11-22T03:28:23.313Z,15.65
2022-11-22T03:30:53.215Z,15.88
2022-11-22T03:33:23.129Z,16.48
2022-11-22T03:35:53.014Z,15.82
2022-11-22T03:38:22.863Z,17.30
2022-11-22T03:40:52.757Z,15.65
2022-11-22T03:43:26.565Z,16.85
2022-11-22T03:45:56.637Z,16.73
2022-11-22T03:48:26.526Z,17.05
2022-11-22T03:50:56.435Z,16.17
2022-11-22T03:53:26.287Z,17.23
2022-11-22T03:55:56.169Z,17.27
2022-11-22T03:58:28.643Z,15.90
2022-11-22T04:00:59.898Z,13.88
2022-11-22T04:03:30.040Z,17.83
2022-11-22T04:05:59.962Z,17.40
2022-11-22T04:08:30.261Z,17.98
2022-11-22T04:11:00.161Z,17.38
2022-11-22T04:13:44.902Z,19.73
2022-11-22T04:16:14.812Z,17.42
2022-11-22T04:18:44.776Z,17.80
2022-11-22T04:21:27.182Z,19.35
2022-11-22T04:24:09.395Z,13.48
2022-11-22T04:26:39.432Z,17.85
2022-11-22T04:29:11.943Z,18.55
2022-11-22T04:31:54.417Z,17.40
2022-11-22T04:34:24.275Z,17.20
2022-11-22T04:36:54.425Z,17.60
2022-11-22T04:39:24.387Z,17.27
2022-11-22T04:42:15.474Z,17.92
2022-11-22T04:44:45.957Z,18.58
2022-11-22T04:47:40.461Z,18.35
2022-11-22T04:50:24.667Z,18.03
2022-11-22T04:52:57.604Z,18.90
2022-11-22T04:55:27.899Z,17.65
2022-11-22T04:57:59.920Z,16.98
2022-11-22T05:00:34.515Z,19.67
2022-11-22T05:03:04.829Z,17.73
2022-11-22T05:05:39.155Z,18.95
2022-11-22T05:08:11.544Z,17.83
2022-11-22T05:10:54.556Z,17.38
2022-11-22T05:13:27.520Z,18.58
2022-11-22T05:16:01.272Z,18.58
2022-11-22T05:18:32.305Z,18.60
2022-11-22T05:21:02.307Z,17.90
2022-11-22T05:23:44.679Z,18.25
2022-11-22T05:26:14.907Z,18.02
2022-11-22T05:28:44.782Z,19.25
2022-11-22T05:31:27.945Z,17.48
2022-11-22T05:34:00.056Z,18.05
2022-11-22T05:36:30.168Z,19.50
2022-11-22T05:39:00.027Z,18.67
2022-11-22T05:41:29.953Z,19.17
2022-11-22T05:44:00.666Z,18.55
2022-11-22T05:46:33.979Z,17.38
2022-11-22T05:49:03.822Z,18.85
2022-11-22T05:51:35.200Z,19.48
2022-11-22T05:54:05.382Z,19.33
2022-11-22T05:56:35.445Z,17.88
2022-11-22T05:59:05.316Z,17.80
2022-11-22T06:01:37.741Z,13.40
2022-11-22T06:04:07.989Z,19.10
2022-11-22T06:06:37.870Z,18.15
2022-11-22T06:09:08.120Z,19.13
2022-11-22T06:11:38.635Z,18.85
2022-11-22T06:14:12.171Z,14.88
2022-11-22T06:16:44.670Z,19.45
2022-11-22T06:19:15.358Z,18.42
2022-11-22T06:21:45.423Z,17.52
2022-11-22T06:24:15.311Z,19.35
2022-11-22T06:26:45.185Z,18.60
2022-11-22T06:29:15.301Z,19.33
2022-11-22T06:31:47.711Z,19.05
2022-11-22T06:34:17.847Z,18.55
2022-11-22T06:36:47.735Z,19.15
2022-11-22T06:39:17.660Z,18.90
2022-11-22T06:41:47.528Z,19.65
2022-11-22T06:44:17.466Z,18.38
2022-11-22T06:46:50.396Z,17.80
2022-11-22T06:49:20.349Z,17.88
2022-11-22T06:51:50.238Z,19.15
2022-11-22T06:54:20.307Z,20.00
2022-11-22T06:56:50.288Z,19.25
2022-11-22T06:59:20.288Z,18.65
2022-11-22T07:01:52.770Z,18.63
2022-11-22T07:04:23.078Z,18.35
2022-11-22T07:06:53.464Z,19.95
2022-11-22T07:09:23.445Z,18.48
2022-11-22T07:11:53.343Z,19.33
2022-11-22T07:14:23.354Z,20.30
2022-11-22T07:16:55.820Z,19.02
2022-11-22T07:19:25.676Z,18.58
2022-11-22T07:21:55.503Z,20.08
2022-11-22T07:24:25.371Z,19.73
2022-11-22T07:26:55.303Z,19.08
2022-11-22T07:29:25.187Z,17.08
2022-11-22T07:31:57.669Z,21.20
2022-11-22T07:34:27.539Z,19.38
2022-11-22T07:37:00.626Z,19.48
2022-11-22T07:39:33.479Z,19.80
2022-11-22T07:42:03.315Z,18.50
2022-11-22T07:44:33.145Z,21.17
2022-11-22T07:47:05.830Z,20.20
2022-11-22T07:49:36.321Z,19.83
2022-11-22T07:52:06.227Z,19.20
2022-11-22T07:54:36.099Z,20.50
2022-11-22T07:57:06.127Z,20.15
2022-11-22T07:59:35.972Z,19.17
2022-11-22T08:02:08.404Z,19.45
2022-11-22T08:04:38.271Z,20.77
2022-11-22T08:07:08.325Z,20.88
2022-11-22T08:09:38.444Z,19.33
2022-11-22T08:12:09.042Z,21.85
2022-11-22T08:14:39.292Z,19.50
2022-11-22T08:17:12.252Z,19.63
2022-11-22T08:19:44.868Z,23.48
2022-11-22T08:22:14.741Z,21.88
2022-11-22T08:24:44.591Z,21.20
2022-11-22T08:27:14.494Z,22.38
2022-11-22T08:29:44.382Z,20.75
2022-11-22T08:32:16.884Z,21.35
2022-11-22T08:34:47.489Z,21.52
2022-11-22T08:37:17.471Z,21.90
2022-11-22T08:39:47.296Z,21.60
2022-11-22T08:42:17.147Z,21.30
2022-11-22T08:44:47.020Z,20.58
2022-11-22T08:47:19.626Z,21.45
2022-11-22T08:49:49.590Z,21.23
2022-11-22T08:52:19.409Z,22.15
2022-11-22T08:54:49.280Z,21.92
2022-11-22T08:57:19.158Z,21.65
2022-11-22T08:59:52.210Z,20.50
2022-11-22T09:02:24.639Z,19.92
2022-11-22T09:04:54.511Z,22.27
2022-11-22T09:10:14.192Z,20.17
2022-11-22T09:12:47.299Z,22.85
2022-11-22T09:15:17.519Z,22.70
2022-11-22T09:17:49.970Z,22.60
2022-11-22T09:20:20.639Z,23.10
2022-11-22T09:22:50.471Z,24.10
2022-11-22T09:25:20.510Z,23.67
2022-11-22T09:27:50.377Z,22.65
2022-11-22T09:30:21.645Z,23.90
2022-11-22T09:32:54.407Z,23.42
2022-11-22T09:35:24.330Z,24.35
2022-11-22T09:37:54.169Z,23.83
2022-11-22T09:40:24.125Z,23.98
2022-11-22T09:43:11.534Z,23.75
2022-11-22T09:46:05.790Z,23.77
2022-11-22T09:49:20.954Z,23.27
2022-11-22T09:51:57.485Z,24.45
2022-11-22T09:54:32.837Z,23.15
2022-11-22T09:57:07.089Z,23.55
2022-11-22T09:59:42.373Z,22.83
2022-11-22T10:02:20.577Z,22.25
2022-11-22T10:04:59.380Z,20.95
2022-11-22T10:07:36.812Z,24.25
2022-11-22T10:10:11.069Z,23.75
2022-11-22T10:12:46.758Z,23.52
2022-11-22T10:15:30.222Z,25.05
2022-11-22T10:18:04.618Z,23.48
2022-11-22T10:20:48.488Z,24.65
2022-11-22T10:23:22.379Z,22.75
2022-11-22T10:25:59.857Z,24.35
2022-11-22T10:28:37.958Z,21.58
2022-11-22T10:31:14.089Z,25.20
2022-11-22T10:34:01.539Z,21.65
2022-11-22T10:36:45.208Z,24.13
2022-11-22T10:39:34.914Z,23.27
2022-11-22T10:42:31.907Z,21.88
2022-11-22T10:45:09.443Z,23.63
2022-11-22T10:47:56.883Z,24.05
2022-11-22T10:50:33.279Z,25.55
2022-11-22T10:53:16.900Z,24.65
2022-11-22T10:55:58.099Z,23.73
2022-11-22T10:58:40.494Z,23.85
2022-11-22T11:01:20.239Z,25.35
2022-11-22T11:03:54.936Z,25.30
2022-11-22T11:06:57.007Z,25.27
2022-11-22T11:12:39.361Z,23.67
2022-11-22T11:15:20.959Z,24.33
2022-11-22T11:18:04.078Z,24.52
2022-11-22T11:20:39.728Z,22.70
2022-11-22T11:23:15.794Z,24.73
2022-11-22T11:25:52.550Z,23.55
2022-11-22T11:28:25.662Z,22.70
2022-11-22T11:30:59.465Z,22.13
2022-11-22T11:33:32.427Z,21.60
2022-11-22T11:36:09.203Z,23.67
2022-11-22T11:38:51.009Z,23.88
2022-11-22T11:41:27.540Z,23.33
2022-11-22T11:43:59.095Z,21.98
2022-11-22T11:46:31.117Z,23.58
2022-11-22T11:49:14.565Z,23.23
2022-11-22T11:51:46.868Z,22.48
2022-11-22T11:54:20.765Z,23.70
2022-11-22T11:56:55.090Z,22.80
2022-11-22T11:59:27.195Z,23.40
2022-11-22T12:02:01.642Z,22.45
2022-11-22T12:04:35.119Z,23.63
2022-11-22T12:07:19.538Z,23.25
2022-11-22T12:09:52.331Z,22.30
2022-11-22T12:12:42.138Z,22.83
2022-11-22T12:15:21.171Z,23.02
2022-11-22T12:17:59.118Z,23.65
2022-11-22T12:20:43.250Z,24.35
2022-11-22T12:23:21.722Z,21.63
2022-11-22T12:25:53.078Z,22.50
2022-11-22T12:28:28.327Z,23.35
2022-11-22T12:31:04.430Z,23.55
2022-11-22T12:33:38.294Z,23.52
2022-11-22T12:36:16.566Z,24.43
2022-11-22T12:38:48.844Z,23.92
2022-11-22T12:41:23.565Z,23.02
2022-11-22T12:46:33.518Z,19.85
2022-11-22T12:49:09.666Z,21.98
2022-11-22T12:51:58.195Z,24.17
2022-11-22T12:54:35.140Z,23.85
2022-11-22T12:57:13.453Z,27.15
2022-11-22T12:59:51.626Z,24.50
2022-11-22T13:02:34.402Z,26.58
2022-11-22T13:05:08.933Z,23.25
2022-11-22T13:07:59.051Z,21.65
2022-11-22T13:10:39.167Z,23.42
2022-11-22T13:13:20.350Z,22.25
2022-11-22T13:15:52.566Z,22.77
2022-11-22T13:18:24.026Z,22.08
2022-11-22T13:21:02.879Z,23.48
2022-11-22T13:24:07.953Z,22.33
2022-11-22T13:26:46.069Z,21.83
2022-11-22T13:29:24.350Z,21.58
2022-11-22T13:32:20.566Z,21.10
2022-11-22T13:35:10.912Z,21.50
2022-11-22T13:37:44.890Z,22.42
2022-11-22T13:40:30.059Z,21.88
2022-11-22T13:43:51.741Z,23.48
2022-11-22T13:47:00.419Z,22.02
2022-11-22T13:49:40.209Z,20.83
2022-11-22T13:52:34.951Z,20.17
2022-11-22T13:55:42.368Z,22.65
2022-11-22T13:58:56.466Z,20.88
2022-11-22T14:02:04.409Z,21.42
2022-11-22T14:04:46.447Z,22.98
2022-11-22T14:07:40.048Z,21.98
2022-11-22T14:10:37.727Z,21.88
2022-11-22T14:13:22.736Z,24.17
2022-11-22T14:16:22.405Z,23.70
2022-11-22T14:19:02.023Z,23.02
2022-11-22T14:21:52.849Z,21.17
2022-11-22T14:24:39.079Z,22.70
2022-11-22T14:27:26.947Z,23.52
2022-11-22T14:30:16.487Z,23.40
2022-11-22T14:32:55.483Z,22.13
2022-11-22T14:35:34.227Z,22.80
2022-11-22T14:38:30.595Z,22.73
2022-11-22T14:41:43.893Z,21.92
2022-11-22T14:44:20.343Z,22.33
2022-11-22T14:46:56.191Z,21.70
2022-11-22T14:49:40.210Z,23.45
2022-11-22T14:52:23.503Z,20.80
2022-11-22T14:54:59.528Z,21.88
2022-11-22T14:57:32.459Z,23.17
2022-11-22T15:00:20.698Z,22.90
2022-11-22T15:03:19.649Z,20.73
2022-11-22T15:09:11.063Z,21.63
2022-11-22T15:09:45.048Z,21.85
2022-11-22T15:12:49.992Z,23.13
2022-11-22T15:57:32.456Z,25.42
2022-11-22T16:00:02.843Z,22.85
2022-11-22T16:02:33.866Z,24.67
2022-11-22T16:06:06.460Z,27.42
2022-11-22T16:08:01.764Z,26.10
2022-11-22T16:10:38.761Z,26.08
2022-11-22T16:13:16.719Z,24.73
2022-11-22T16:15:48.310Z,24.25
2022-11-22T16:18:26.347Z,26.25
2022-11-22T16:21:03.355Z,25.08
2022-11-22T16:23:37.832Z,24.77
2022-11-22T16:26:25.051Z,26.27
2022-11-22T16:28:56.598Z,26.98
2022-11-22T16:31:28.616Z,26.83
2022-11-22T16:33:59.956Z,25.08
2022-11-22T16:36:32.596Z,23.92
2022-11-22T16:39:05.176Z,26.42
2022-11-22T16:41:37.162Z,24.30
2022-11-22T16:44:15.090Z,23.48
2022-11-22T16:46:45.538Z,26.80
2022-11-22T16:49:20.897Z,24.92
2022-11-22T16:51:51.842Z,25.38
2022-11-22T16:54:27.932Z,25.10
2022-11-22T16:56:57.863Z,25.10
2022-11-22T16:59:27.909Z,24.10
2022-11-22T17:01:57.893Z,24.13
2022-11-22T17:04:29.066Z,24.45
2022-11-22T17:06:59.296Z,25.50
2022-11-22T17:09:32.178Z,27.40
2022-11-22T17:12:02.391Z,24.83
2022-11-22T17:14:32.715Z,25.55
2022-11-22T17:17:05.502Z,26.67
2022-11-22T17:19:52.837Z,26.00
2022-11-22T17:22:23.892Z,24.58
2022-11-22T17:24:56.774Z,22.70
2022-11-22T17:27:26.729Z,24.40
2022-11-22T17:29:57.145Z,25.95
2022-11-22T17:32:27.143Z,23.45
2022-11-22T17:34:57.141Z,26.10
2022-11-22T17:37:29.577Z,23.13
2022-11-22T17:40:02.171Z,25.35
2022-11-22T17:42:34.534Z,25.70
2022-11-22T17:45:10.171Z,26.58
2022-11-22T17:47:40.135Z,24.27
2022-11-22T17:50:11.298Z,23.25
2022-11-22T17:52:41.319Z,24.92
2022-11-22T17:55:14.624Z,24.80
2022-11-22T17:57:44.789Z,26.17
2022-11-22T18:00:16.471Z,26.55
2022-11-22T18:02:46.786Z,25.23
2022-11-22T18:05:17.018Z,24.40
2022-11-22T18:07:47.061Z,24.83
2022-11-22T18:10:19.813Z,26.75
2022-11-22T18:13:05.915Z,24.75
2022-11-22T18:15:39.815Z,24.45
2022-11-22T18:18:27.043Z,25.50
2022-11-22T18:20:59.927Z,24.13
2022-11-22T18:23:35.197Z,26.25
2022-11-22T18:31:52.614Z,25.20
2022-11-22T18:34:23.072Z,25.92
2022-11-22T18:36:56.412Z,28.60
2022-11-22T18:39:30.459Z,24.52
2022-11-22T18:42:03.468Z,26.27
2022-11-22T18:44:33.371Z,25.00
2022-11-22T18:47:03.261Z,23.80
2022-11-22T18:49:33.652Z,28.77
2022-11-22T18:52:04.183Z,26.75
2022-11-22T18:54:36.832Z,24.88
2022-11-22T18:57:09.264Z,27.88
2022-11-22T18:59:39.165Z,23.55
2022-11-22T19:02:09.307Z,28.17
2022-11-22T19:04:39.476Z,23.50
2022-11-22T19:07:09.373Z,28.75
2022-11-22T19:09:39.258Z,25.83
2022-11-22T19:12:12.199Z,24.45
2022-11-22T19:14:42.073Z,26.05
2022-11-22T19:17:12.769Z,25.08
2022-11-22T19:19:42.611Z,25.58
2022-11-22T19:22:12.510Z,27.45
2022-11-22T19:24:44.829Z,25.90
2022-11-22T19:29:49.364Z,25.95
2022-11-22T19:32:19.340Z,24.75
2022-11-22T19:34:51.246Z,24.98
2022-11-22T19:37:21.147Z,26.52
2022-11-22T19:39:51.010Z,26.55
2022-11-22T19:42:23.444Z,25.00
2022-11-22T19:44:55.638Z,26.08
2022-11-22T19:47:26.755Z,27.02
2022-11-22T19:49:57.651Z,25.00
2022-11-22T19:52:27.545Z,29.38
2022-11-22T19:54:57.402Z,24.42
2022-11-22T19:57:29.827Z,24.88
2022-11-22T20:00:00.232Z,24.85
2022-11-22T20:02:30.293Z,24.58
2022-11-22T20:05:00.173Z,26.30
2022-11-22T20:07:32.584Z,26.70
2022-11-22T20:10:04.147Z,27.33
2022-11-22T20:12:36.611Z,24.73
2022-11-22T20:15:07.364Z,26.35
2022-11-22T20:17:37.236Z,24.58
2022-11-22T20:20:08.314Z,24.00
2022-11-22T20:22:38.148Z,25.40
2022-11-22T20:25:09.576Z,25.33
2022-11-22T20:27:42.077Z,25.73
2022-11-22T20:30:13.771Z,25.52
2022-11-22T20:32:43.909Z,23.92
2022-11-22T20:35:14.215Z,25.42
2022-11-22T20:37:44.051Z,23.85
2022-11-22T20:40:14.290Z,25.40
2022-11-22T20:42:46.734Z,26.15
2022-11-22T20:45:16.652Z,24.83
2022-11-22T20:47:46.504Z,25.77
2022-11-22T20:50:16.547Z,26.25
2022-11-22T20:52:46.398Z,27.98
2022-11-22T20:55:16.602Z,25.35
2022-11-22T20:57:49.062Z,27.00
2022-11-22T21:00:19.893Z,26.30
2022-11-22T21:02:49.748Z,26.35
2022-11-22T21:05:19.622Z,24.35
2022-11-22T21:07:49.509Z,24.33
2022-11-22T21:10:19.654Z,26.15
2022-11-22T21:12:52.108Z,25.38
2022-11-22T21:15:22.594Z,26.30
2022-11-22T21:18:23.067Z,26.08
2022-11-22T21:20:42.333Z,25.65
2022-11-22T21:23:12.170Z,24.83
2022-11-22T21:25:41.994Z,25.20
2022-11-22T21:28:14.416Z,26.10
2022-11-22T21:30:44.250Z,23.95
2022-11-22T21:33:14.107Z,26.25
2022-11-22T21:35:45.769Z,25.35
2022-11-22T21:38:16.377Z,24.63
2022-11-22T21:40:58.382Z,26.25
2022-11-22T21:43:37.971Z,27.08
2022-11-22T21:46:08.095Z,26.33
2022-11-22T21:48:37.993Z,28.33
2022-11-22T21:51:08.176Z,25.85
2022-11-22T21:53:38.022Z,25.60
2022-11-22T21:56:08.480Z,26.80
2022-11-22T21:58:40.946Z,25.45
2022-11-22T22:01:14.292Z,24.30
2022-11-22T22:03:44.420Z,23.83
2022-11-22T22:06:14.276Z,25.30
2022-11-22T22:08:44.184Z,24.60
2022-11-22T22:11:14.173Z,27.05
2022-11-22T22:13:46.861Z,24.67
2022-11-22T22:16:19.270Z,24.98
2022-11-22T22:18:49.654Z,26.65
2022-11-22T22:21:21.539Z,25.30
2022-11-22T22:23:51.386Z,25.27
2022-11-22T22:26:21.531Z,24.48
2022-11-22T22:28:55.965Z,24.75
2022-11-22T22:31:27.046Z,27.05
2022-11-22T22:33:58.891Z,29.05
2022-11-22T22:36:29.904Z,24.02
2022-11-22T22:38:59.769Z,25.55
2022-11-22T22:41:30.502Z,25.95
2022-11-22T22:44:02.966Z,26.10
2022-11-22T22:46:32.799Z,26.92
2022-11-22T22:49:02.848Z,27.45
2022-11-22T22:51:34.186Z,25.55
2022-11-22T22:54:04.132Z,25.27
2022-11-22T22:56:34.546Z,25.40
2022-11-22T22:59:07.952Z,26.60
2022-11-22T23:01:38.169Z,26.65
2022-11-22T23:04:08.811Z,26.25
2022-11-22T23:06:41.954Z,26.40
2022-11-22T23:09:14.059Z,26.15
2022-11-22T23:11:56.504Z,25.90
2022-11-22T23:14:30.873Z,25.10
2022-11-22T23:17:00.731Z,27.00
2022-11-22T23:19:30.843Z,27.80
2022-11-22T23:22:00.878Z,25.77
2022-11-22T23:24:33.577Z,25.75
2022-11-22T23:27:03.836Z,25.23
2022-11-22T23:29:36.528Z,28.80
2022-11-22T23:32:06.880Z,24.98
2022-11-22T23:34:36.761Z,26.67
2022-11-22T23:37:06.649Z,24.73
2022-11-22T23:39:36.508Z,28.88
2022-11-22T23:42:06.574Z,26.90
2022-11-22T23:44:38.971Z,31.63
2022-11-22T23:47:08.938Z,27.50
2022-11-22T23:49:38.749Z,27.83
2022-11-22T23:52:08.581Z,27.90
2022-11-22T23:54:38.426Z,24.85
2022-11-22T23:57:08.281Z,25.63
2022-11-22T23:59:40.706Z,26.08
